sensor_id;sensor_type;location;lat;lon;timestamp;P1;durP1;ratioP1;P2;durP2;ratioP2
48751;SDS011;34544;48.836;9.174;2022-12-01T00:01:44;34.15;;;16.95;;
48751;SDS011;34544;48.836;9.174;2022-12-01T00:04:10;33.75;;;16.98;;
48751;SDS011;34544;48.836;9.174;2022-12-01T00:06:35;35.78;;;18.33;;
48751;SDS011;34544;48.836;9.174;2022-12-01T00:09:01;34.13;;;18.00;;
48751;SDS011;34544;48.836;9.174;2022-12-01T00:11:45;31.92;;;18.25;;
48751;SDS011;34544;48.836;9.174;2022-12-01T00:14:11;31.83;;;16.63;;
48751;SDS011;34544;48.836;9.174;2022-12-01T00:16:37;32.97;;;17.83;;
48751;SDS011;34544;48.836;9.174;2022-12-01T00:19:04;32.05;;;17.92;;
48751;SDS011;34544;48.836;9.174;2022-12-01T00:21:30;35.67;;;19.33;;
48751;SDS011;34544;48.836;9.174;2022-12-01T00:23:56;37.35;;;18.90;;
48751;SDS011;34544;48.836;9.174;2022-12-01T00:26:22;27.15;;;16.40;;
48751;SDS011;34544;48.836;9.174;2022-12-01T00:28:51;32.70;;;17.85;;
48751;SDS011;34544;48.836;9.174;2022-12-01T00:31:18;33.40;;;16.90;;
48751;SDS011;34544;48.836;9.174;2022-12-01T00:33:45;33.15;;;18.40;;
48751;SDS011;34544;48.836;9.174;2022-12-01T00:36:10;37.05;;;19.40;;
48751;SDS011;34544;48.836;9.174;2022-12-01T00:38:37;33.03;;;18.58;;
48751;SDS011;34544;48.836;9.174;2022-12-01T00:41:03;36.85;;;18.55;;
48751;SDS011;34544;48.836;9.174;2022-12-01T00:43:28;32.42;;;17.42;;
48751;SDS011;34544;48.836;9.174;2022-12-01T00:45:54;33.35;;;16.65;;
48751;SDS011;34544;48.836;9.174;2022-12-01T00:48:20;37.97;;;17.90;;
48751;SDS011;34544;48.836;9.174;2022-12-01T00:50:46;36.20;;;19.50;;
48751;SDS011;34544;48.836;9.174;2022-12-01T00:53:14;30.88;;;17.88;;
48751;SDS011;34544;48.836;9.174;2022-12-01T00:55:40;27.77;;;16.05;;
48751;SDS011;34544;48.836;9.174;2022-12-01T00:58:06;30.77;;;16.75;;
48751;SDS011;34544;48.836;9.174;2022-12-01T01:00:31;36.45;;;17.80;;
48751;SDS011;34544;48.836;9.174;2022-12-01T01:02:57;33.15;;;17.55;;
48751;SDS011;34544;48.836;9.174;2022-12-01T01:05:23;31.25;;;16.50;;
48751;SDS011;34544;48.836;9.174;2022-12-01T01:07:49;30.60;;;17.23;;
48751;SDS011;34544;48.836;9.174;2022-12-01T01:10:14;35.38;;;18.15;;
48751;SDS011;34544;48.836;9.174;2022-12-01T01:12:40;33.53;;;17.25;;
48751;SDS011;34544;48.836;9.174;2022-12-01T01:15:06;31.38;;;17.20;;
48751;SDS011;34544;48.836;9.174;2022-12-01T01:17:32;32.38;;;16.25;;
48751;SDS011;34544;48.836;9.174;2022-12-01T01:19:58;32.38;;;17.80;;
48751;SDS011;34544;48.836;9.174;2022-12-01T01:22:24;34.78;;;18.27;;
48751;SDS011;34544;48.836;9.174;2022-12-01T01:24:49;31.05;;;17.85;;
48751;SDS011;34544;48.836;9.174;2022-12-01T01:27:15;33.72;;;16.55;;
48751;SDS011;34544;48.836;9.174;2022-12-01T01:29:41;31.40;;;16.42;;
48751;SDS011;34544;48.836;9.174;2022-12-01T01:32:07;31.58;;;17.63;;
48751;SDS011;34544;48.836;9.174;2022-12-01T01:34:33;30.10;;;17.40;;
48751;SDS011;34544;48.836;9.174;2022-12-01T01:36:58;29.67;;;17.27;;
48751;SDS011;34544;48.836;9.174;2022-12-01T01:39:24;30.80;;;17.10;;
48751;SDS011;34544;48.836;9.174;2022-12-01T01:41:49;33.35;;;17.33;;
48751;SDS011;34544;48.836;9.174;2022-12-01T01:47:39;31.75;;;16.70;;
48751;SDS011;34544;48.836;9.174;2022-12-01T01:50:09;28.17;;;16.42;;
48751;SDS011;34544;48.836;9.174;2022-12-01T01:52:42;31.98;;;17.30;;
48751;SDS011;34544;48.836;9.174;2022-12-01T01:55:11;30.15;;;16.38;;
48751;SDS011;34544;48.836;9.174;2022-12-01T01:57:38;31.95;;;17.00;;
48751;SDS011;34544;48.836;9.174;2022-12-01T02:00:07;34.63;;;18.63;;
48751;SDS011;34544;48.836;9.174;2022-12-01T02:02:41;28.35;;;15.75;;
48751;SDS011;34544;48.836;9.174;2022-12-01T02:05:11;27.25;;;16.38;;
48751;SDS011;34544;48.836;9.174;2022-12-01T02:07:45;26.33;;;14.30;;
48751;SDS011;34544;48.836;9.174;2022-12-01T02:10:12;30.63;;;15.85;;
48751;SDS011;34544;48.836;9.174;2022-12-01T02:18:11;27.60;;;14.82;;
48751;SDS011;34544;48.836;9.174;2022-12-01T02:21:07;30.65;;;16.33;;
48751;SDS011;34544;48.836;9.174;2022-12-01T02:26:36;26.35;;;15.40;;
48751;SDS011;34544;48.836;9.174;2022-12-01T02:29:33;26.60;;;14.85;;
48751;SDS011;34544;48.836;9.174;2022-12-01T02:35:14;29.88;;;15.25;;
48751;SDS011;34544;48.836;9.174;2022-12-01T02:40:42;26.58;;;15.55;;
48751;SDS011;34544;48.836;9.174;2022-12-01T02:43:22;31.98;;;15.90;;
48751;SDS011;34544;48.836;9.174;2022-12-01T02:48:33;23.55;;;14.82;;
48751;SDS011;34544;48.836;9.174;2022-12-01T02:51:02;25.92;;;13.95;;
48751;SDS011;34544;48.836;9.174;2022-12-01T02:53:34;28.23;;;16.20;;
48751;SDS011;34544;48.836;9.174;2022-12-01T02:56:04;26.17;;;14.13;;
48751;SDS011;34544;48.836;9.174;2022-12-01T02:58:33;29.05;;;14.45;;
48751;SDS011;34544;48.836;9.174;2022-12-01T03:04:05;24.38;;;14.30;;
48751;SDS011;34544;48.836;9.174;2022-12-01T03:09:23;27.08;;;15.38;;
48751;SDS011;34544;48.836;9.174;2022-12-01T03:11:55;28.70;;;14.90;;
48751;SDS011;34544;48.836;9.174;2022-12-01T03:14:44;25.77;;;13.35;;
48751;SDS011;34544;48.836;9.174;2022-12-01T03:17:27;22.10;;;12.85;;
48751;SDS011;34544;48.836;9.174;2022-12-01T03:20:00;27.95;;;15.52;;
48751;SDS011;34544;48.836;9.174;2022-12-01T03:22:40;24.20;;;13.25;;
48751;SDS011;34544;48.836;9.174;2022-12-01T03:25:28;23.92;;;14.05;;
48751;SDS011;34544;48.836;9.174;2022-12-01T03:27:55;25.95;;;14.70;;
48751;SDS011;34544;48.836;9.174;2022-12-01T03:30:23;26.33;;;15.35;;
48751;SDS011;34544;48.836;9.174;2022-12-01T03:32:53;27.65;;;15.65;;
48751;SDS011;34544;48.836;9.174;2022-12-01T03:35:28;25.35;;;14.70;;
48751;SDS011;34544;48.836;9.174;2022-12-01T03:38:08;26.92;;;14.23;;
48751;SDS011;34544;48.836;9.174;2022-12-01T03:40:38;27.80;;;14.48;;
48751;SDS011;34544;48.836;9.174;2022-12-01T03:43:06;31.10;;;14.93;;
48751;SDS011;34544;48.836;9.174;2022-12-01T03:48:19;31.63;;;15.35;;
48751;SDS011;34544;48.836;9.174;2022-12-01T03:56:37;25.25;;;14.77;;
48751;SDS011;34544;48.836;9.174;2022-12-01T03:59:08;25.80;;;14.48;;
48751;SDS011;34544;48.836;9.174;2022-12-01T04:01:35;29.73;;;15.50;;
48751;SDS011;34544;48.836;9.174;2022-12-01T04:04:09;28.85;;;15.75;;
48751;SDS011;34544;48.836;9.174;2022-12-01T04:06:36;28.40;;;15.15;;
48751;SDS011;34544;48.836;9.174;2022-12-01T04:09:05;29.63;;;16.15;;
48751;SDS011;34544;48.836;9.174;2022-12-01T04:11:31;25.85;;;14.32;;
48751;SDS011;34544;48.836;9.174;2022-12-01T04:14:15;29.80;;;15.82;;
48751;SDS011;34544;48.836;9.174;2022-12-01T04:16:41;27.08;;;15.85;;
48751;SDS011;34544;48.836;9.174;2022-12-01T04:19:06;32.95;;;16.88;;
48751;SDS011;34544;48.836;9.174;2022-12-01T04:21:32;30.70;;;16.45;;
48751;SDS011;34544;48.836;9.174;2022-12-01T04:23:58;34.50;;;16.60;;
48751;SDS011;34544;48.836;9.174;2022-12-01T04:26:27;26.48;;;16.13;;
48751;SDS011;34544;48.836;9.174;2022-12-01T04:29:00;29.30;;;17.35;;
48751;SDS011;34544;48.836;9.174;2022-12-01T04:31:27;32.38;;;16.92;;
48751;SDS011;34544;48.836;9.174;2022-12-01T04:33:54;28.45;;;15.55;;
48751;SDS011;34544;48.836;9.174;2022-12-01T04:36:20;29.63;;;17.27;;
48751;SDS011;34544;48.836;9.174;2022-12-01T04:38:46;30.25;;;17.08;;
48751;SDS011;34544;48.836;9.174;2022-12-01T04:41:12;29.65;;;16.27;;
48751;SDS011;34544;48.836;9.174;2022-12-01T04:43:39;30.25;;;17.17;;
48751;SDS011;34544;48.836;9.174;2022-12-01T04:46:05;29.20;;;16.90;;
48751;SDS011;34544;48.836;9.174;2022-12-01T04:48:33;30.02;;;16.17;;
48751;SDS011;34544;48.836;9.174;2022-12-01T04:51:00;26.75;;;16.38;;
48751;SDS011;34544;48.836;9.174;2022-12-01T04:53:26;29.42;;;15.98;;
48751;SDS011;34544;48.836;9.174;2022-12-01T04:55:51;28.25;;;16.35;;
48751;SDS011;34544;48.836;9.174;2022-12-01T04:58:17;30.17;;;16.38;;
48751;SDS011;34544;48.836;9.174;2022-12-01T05:00:43;33.40;;;18.20;;
48751;SDS011;34544;48.836;9.174;2022-12-01T05:03:08;29.05;;;16.80;;
48751;SDS011;34544;48.836;9.174;2022-12-01T05:05:34;31.90;;;17.80;;
48751;SDS011;34544;48.836;9.174;2022-12-01T05:08:00;31.77;;;16.65;;
48751;SDS011;34544;48.836;9.174;2022-12-01T05:10:25;30.92;;;17.27;;
48751;SDS011;34544;48.836;9.174;2022-12-01T05:12:51;30.15;;;16.67;;
48751;SDS011;34544;48.836;9.174;2022-12-01T05:15:19;32.35;;;17.77;;
48751;SDS011;34544;48.836;9.174;2022-12-01T05:17:45;33.20;;;17.17;;
48751;SDS011;34544;48.836;9.174;2022-12-01T05:20:13;33.85;;;18.42;;
48751;SDS011;34544;48.836;9.174;2022-12-01T05:23:02;32.45;;;18.38;;
48751;SDS011;34544;48.836;9.174;2022-12-01T05:25:28;32.85;;;17.17;;
48751;SDS011;34544;48.836;9.174;2022-12-01T05:27:54;29.63;;;16.90;;
48751;SDS011;34544;48.836;9.174;2022-12-01T05:30:20;31.02;;;17.77;;
48751;SDS011;34544;48.836;9.174;2022-12-01T05:32:46;30.45;;;16.48;;
48751;SDS011;34544;48.836;9.174;2022-12-01T05:35:11;28.35;;;16.67;;
48751;SDS011;34544;48.836;9.174;2022-12-01T05:37:37;30.00;;;16.58;;
48751;SDS011;34544;48.836;9.174;2022-12-01T05:40:03;36.65;;;18.05;;
48751;SDS011;34544;48.836;9.174;2022-12-01T05:42:29;28.00;;;16.17;;
48751;SDS011;34544;48.836;9.174;2022-12-01T05:44:55;29.63;;;15.82;;
48751;SDS011;34544;48.836;9.174;2022-12-01T05:47:20;27.42;;;16.90;;
48751;SDS011;34544;48.836;9.174;2022-12-01T05:49:46;27.52;;;15.73;;
48751;SDS011;34544;48.836;9.174;2022-12-01T05:52:12;32.75;;;16.85;;
48751;SDS011;34544;48.836;9.174;2022-12-01T05:54:38;27.77;;;15.98;;
48751;SDS011;34544;48.836;9.174;2022-12-01T05:57:03;28.25;;;16.45;;
48751;SDS011;34544;48.836;9.174;2022-12-01T05:59:29;29.98;;;17.55;;
48751;SDS011;34544;48.836;9.174;2022-12-01T06:01:55;28.30;;;17.05;;
48751;SDS011;34544;48.836;9.174;2022-12-01T06:04:20;30.80;;;17.25;;
48751;SDS011;34544;48.836;9.174;2022-12-01T06:06:46;33.42;;;18.00;;
48751;SDS011;34544;48.836;9.174;2022-12-01T06:09:11;29.75;;;17.55;;
48751;SDS011;34544;48.836;9.174;2022-12-01T06:11:37;31.08;;;17.45;;
48751;SDS011;34544;48.836;9.174;2022-12-01T06:14:03;36.00;;;17.35;;
48751;SDS011;34544;48.836;9.174;2022-12-01T06:16:28;28.30;;;16.60;;
48751;SDS011;34544;48.836;9.174;2022-12-01T06:18:54;29.92;;;16.38;;
48751;SDS011;34544;48.836;9.174;2022-12-01T06:21:20;30.27;;;15.85;;
48751;SDS011;34544;48.836;9.174;2022-12-01T06:23:45;31.85;;;16.58;;
48751;SDS011;34544;48.836;9.174;2022-12-01T06:26:11;33.35;;;18.48;;
48751;SDS011;34544;48.836;9.174;2022-12-01T06:28:37;33.58;;;17.75;;
48751;SDS011;34544;48.836;9.174;2022-12-01T06:31:02;29.20;;;17.75;;
48751;SDS011;34544;48.836;9.174;2022-12-01T06:33:28;33.00;;;18.20;;
48751;SDS011;34544;48.836;9.174;2022-12-01T06:36:00;33.15;;;17.50;;
48751;SDS011;34544;48.836;9.174;2022-12-01T06:38:32;32.72;;;16.92;;
48751;SDS011;34544;48.836;9.174;2022-12-01T06:40:59;34.15;;;17.88;;
48751;SDS011;34544;48.836;9.174;2022-12-01T06:43:25;30.48;;;16.92;;
48751;SDS011;34544;48.836;9.174;2022-12-01T06:45:51;30.33;;;17.17;;
48751;SDS011;34544;48.836;9.174;2022-12-01T06:48:17;31.25;;;17.92;;
48751;SDS011;34544;48.836;9.174;2022-12-01T06:50:42;35.83;;;19.17;;
48751;SDS011;34544;48.836;9.174;2022-12-01T06:53:08;29.17;;;17.95;;
48751;SDS011;34544;48.836;9.174;2022-12-01T06:55:35;33.60;;;19.58;;
48751;SDS011;34544;48.836;9.174;2022-12-01T06:58:01;32.90;;;19.73;;
48751;SDS011;34544;48.836;9.174;2022-12-01T07:00:27;30.20;;;18.10;;
48751;SDS011;34544;48.836;9.174;2022-12-01T07:02:52;33.63;;;18.58;;
48751;SDS011;34544;48.836;9.174;2022-12-01T07:05:18;28.67;;;15.25;;
48751;SDS011;34544;48.836;9.174;2022-12-01T07:07:44;28.02;;;16.77;;
48751;SDS011;34544;48.836;9.174;2022-12-01T07:10:10;31.55;;;17.65;;
48751;SDS011;34544;48.836;9.174;2022-12-01T07:12:37;28.83;;;16.88;;
48751;SDS011;34544;48.836;9.174;2022-12-01T07:15:04;31.77;;;16.80;;
48751;SDS011;34544;48.836;9.174;2022-12-01T07:17:31;32.30;;;17.35;;
48751;SDS011;34544;48.836;9.174;2022-12-01T07:19:57;32.97;;;16.63;;
48751;SDS011;34544;48.836;9.174;2022-12-01T07:22:23;32.35;;;17.48;;
48751;SDS011;34544;48.836;9.174;2022-12-01T07:24:49;27.02;;;16.48;;
48751;SDS011;34544;48.836;9.174;2022-12-01T07:27:15;25.38;;;16.10;;
48751;SDS011;34544;48.836;9.174;2022-12-01T07:29:40;33.25;;;15.90;;
48751;SDS011;34544;48.836;9.174;2022-12-01T07:32:06;30.88;;;17.23;;
48751;SDS011;34544;48.836;9.174;2022-12-01T07:34:32;32.40;;;17.45;;
48751;SDS011;34544;48.836;9.174;2022-12-01T07:36:57;28.63;;;17.13;;
48751;SDS011;34544;48.836;9.174;2022-12-01T07:39:23;34.08;;;17.70;;
48751;SDS011;34544;48.836;9.174;2022-12-01T07:41:49;25.85;;;15.20;;
48751;SDS011;34544;48.836;9.174;2022-12-01T07:44:14;28.23;;;15.68;;
48751;SDS011;34544;48.836;9.174;2022-12-01T07:46:40;32.15;;;16.73;;
48751;SDS011;34544;48.836;9.174;2022-12-01T07:49:06;27.27;;;15.65;;
48751;SDS011;34544;48.836;9.174;2022-12-01T07:51:32;29.48;;;15.88;;
48751;SDS011;34544;48.836;9.174;2022-12-01T07:54:03;31.27;;;17.67;;
48751;SDS011;34544;48.836;9.174;2022-12-01T07:56:30;29.83;;;16.63;;
48751;SDS011;34544;48.836;9.174;2022-12-01T07:58:56;28.05;;;17.10;;
48751;SDS011;34544;48.836;9.174;2022-12-01T08:01:22;32.35;;;15.25;;
48751;SDS011;34544;48.836;9.174;2022-12-01T08:03:49;25.50;;;15.20;;
48751;SDS011;34544;48.836;9.174;2022-12-01T08:06:24;28.40;;;15.52;;
48751;SDS011;34544;48.836;9.174;2022-12-01T08:08:51;28.85;;;16.30;;
48751;SDS011;34544;48.836;9.174;2022-12-01T08:11:18;29.35;;;16.88;;
48751;SDS011;34544;48.836;9.174;2022-12-01T08:13:46;27.27;;;15.82;;
48751;SDS011;34544;48.836;9.174;2022-12-01T08:16:13;30.17;;;16.67;;
48751;SDS011;34544;48.836;9.174;2022-12-01T08:18:40;27.98;;;15.90;;
48751;SDS011;34544;48.836;9.174;2022-12-01T08:21:07;28.70;;;15.45;;
48751;SDS011;34544;48.836;9.174;2022-12-01T08:23:34;31.67;;;17.75;;
48751;SDS011;34544;48.836;9.174;2022-12-01T08:26:04;34.92;;;16.75;;
48751;SDS011;34544;48.836;9.174;2022-12-01T08:28:34;27.90;;;16.55;;
48751;SDS011;34544;48.836;9.174;2022-12-01T08:31:05;31.25;;;15.52;;
48751;SDS011;34544;48.836;9.174;2022-12-01T08:33:36;31.25;;;16.58;;
48751;SDS011;34544;48.836;9.174;2022-12-01T08:36:02;30.13;;;16.42;;
48751;SDS011;34544;48.836;9.174;2022-12-01T08:38:29;28.50;;;16.10;;
48751;SDS011;34544;48.836;9.174;2022-12-01T08:40:58;29.02;;;16.60;;
48751;SDS011;34544;48.836;9.174;2022-12-01T08:43:28;28.75;;;15.98;;
48751;SDS011;34544;48.836;9.174;2022-12-01T08:45:56;25.88;;;16.02;;
48751;SDS011;34544;48.836;9.174;2022-12-01T08:48:25;29.45;;;17.08;;
48751;SDS011;34544;48.836;9.174;2022-12-01T08:51:04;25.08;;;15.32;;
48751;SDS011;34544;48.836;9.174;2022-12-01T08:53:32;25.98;;;15.45;;
48751;SDS011;34544;48.836;9.174;2022-12-01T08:56:00;27.60;;;15.32;;
48751;SDS011;34544;48.836;9.174;2022-12-01T08:58:48;27.88;;;15.32;;
48751;SDS011;34544;48.836;9.174;2022-12-01T09:01:16;27.35;;;14.93;;
48751;SDS011;34544;48.836;9.174;2022-12-01T09:03:42;29.25;;;15.85;;
48751;SDS011;34544;48.836;9.174;2022-12-01T09:06:10;29.25;;;15.63;;
48751;SDS011;34544;48.836;9.174;2022-12-01T09:08:40;26.90;;;15.48;;
48751;SDS011;34544;48.836;9.174;2022-12-01T09:11:08;24.58;;;14.75;;
48751;SDS011;34544;48.836;9.174;2022-12-01T09:13:36;27.95;;;16.65;;
48751;SDS011;34544;48.836;9.174;2022-12-01T09:16:04;29.75;;;15.20;;
48751;SDS011;34544;48.836;9.174;2022-12-01T09:18:32;29.33;;;14.60;;
48751;SDS011;34544;48.836;9.174;2022-12-01T09:20:58;30.52;;;15.38;;
48751;SDS011;34544;48.836;9.174;2022-12-01T09:23:24;32.08;;;17.05;;
48751;SDS011;34544;48.836;9.174;2022-12-01T09:25:50;26.17;;;14.90;;
48751;SDS011;34544;48.836;9.174;2022-12-01T09:28:17;26.38;;;15.63;;
48751;SDS011;34544;48.836;9.174;2022-12-01T09:30:44;28.98;;;16.20;;
48751;SDS011;34544;48.836;9.174;2022-12-01T09:33:10;25.77;;;15.57;;
48751;SDS011;34544;48.836;9.174;2022-12-01T09:35:36;29.20;;;16.13;;
48751;SDS011;34544;48.836;9.174;2022-12-01T09:38:02;28.17;;;15.23;;
48751;SDS011;34544;48.836;9.174;2022-12-01T09:40:35;27.88;;;14.52;;
48751;SDS011;34544;48.836;9.174;2022-12-01T09:43:04;28.88;;;16.38;;
48751;SDS011;34544;48.836;9.174;2022-12-01T09:45:42;26.73;;;16.38;;
48751;SDS011;34544;48.836;9.174;2022-12-01T09:48:24;28.60;;;16.50;;
48751;SDS011;34544;48.836;9.174;2022-12-01T09:53:42;28.92;;;14.63;;
48751;SDS011;34544;48.836;9.174;2022-12-01T09:56:19;26.77;;;15.60;;
48751;SDS011;34544;48.836;9.174;2022-12-01T09:59:01;28.42;;;15.77;;
48751;SDS011;34544;48.836;9.174;2022-12-01T10:01:40;26.33;;;15.30;;
48751;SDS011;34544;48.836;9.174;2022-12-01T10:04:12;29.73;;;16.63;;
48751;SDS011;34544;48.836;9.174;2022-12-01T10:06:48;25.33;;;16.52;;
48751;SDS011;34544;48.836;9.174;2022-12-01T10:09:26;26.17;;;15.18;;
48751;SDS011;34544;48.836;9.174;2022-12-01T10:12:05;28.83;;;15.67;;
48751;SDS011;34544;48.836;9.174;2022-12-01T10:14:43;26.35;;;15.60;;
48751;SDS011;34544;48.836;9.174;2022-12-01T10:19:53;26.25;;;14.73;;
48751;SDS011;34544;48.836;9.174;2022-12-01T10:25:21;26.20;;;15.20;;
48751;SDS011;34544;48.836;9.174;2022-12-01T10:30:50;32.63;;;16.85;;
48751;SDS011;34544;48.836;9.174;2022-12-01T10:33:24;27.88;;;15.98;;
48751;SDS011;34544;48.836;9.174;2022-12-01T10:35:53;30.17;;;17.52;;
48751;SDS011;34544;48.836;9.174;2022-12-01T10:38:24;26.33;;;16.10;;
48751;SDS011;34544;48.836;9.174;2022-12-01T10:40:53;27.33;;;16.40;;
48751;SDS011;34544;48.836;9.174;2022-12-01T10:43:25;25.27;;;15.45;;
48751;SDS011;34544;48.836;9.174;2022-12-01T10:45:58;28.10;;;15.60;;
48751;SDS011;34544;48.836;9.174;2022-12-01T10:48:29;24.45;;;16.15;;
48751;SDS011;34544;48.836;9.174;2022-12-01T10:50:56;26.63;;;15.20;;
48751;SDS011;34544;48.836;9.174;2022-12-01T10:53:39;27.95;;;16.08;;
48751;SDS011;34544;48.836;9.174;2022-12-01T10:56:07;30.67;;;15.35;;
48751;SDS011;34544;48.836;9.174;2022-12-01T10:58:44;25.00;;;14.70;;
48751;SDS011;34544;48.836;9.174;2022-12-01T11:01:20;30.08;;;16.55;;
48751;SDS011;34544;48.836;9.174;2022-12-01T11:03:48;28.38;;;16.05;;
48751;SDS011;34544;48.836;9.174;2022-12-01T11:06:23;25.17;;;15.10;;
48751;SDS011;34544;48.836;9.174;2022-12-01T11:08:54;25.38;;;15.02;;
48751;SDS011;34544;48.836;9.174;2022-12-01T11:11:33;27.55;;;15.70;;
48751;SDS011;34544;48.836;9.174;2022-12-01T11:14:05;30.02;;;16.02;;
48751;SDS011;34544;48.836;9.174;2022-12-01T11:16:44;25.88;;;15.68;;
48751;SDS011;34544;48.836;9.174;2022-12-01T11:21:49;29.98;;;15.70;;
48751;SDS011;34544;48.836;9.174;2022-12-01T11:24:26;24.55;;;14.43;;
48751;SDS011;34544;48.836;9.174;2022-12-01T11:26:56;30.92;;;15.70;;
48751;SDS011;34544;48.836;9.174;2022-12-01T11:31:56;27.65;;;16.33;;
48751;SDS011;34544;48.836;9.174;2022-12-01T11:34:26;27.73;;;16.10;;
48751;SDS011;34544;48.836;9.174;2022-12-01T11:36:56;21.95;;;14.80;;
48751;SDS011;34544;48.836;9.174;2022-12-01T11:42:03;24.65;;;14.68;;
48751;SDS011;34544;48.836;9.174;2022-12-01T11:44:35;30.48;;;15.77;;
48751;SDS011;34544;48.836;9.174;2022-12-01T11:47:11;24.95;;;14.90;;
48751;SDS011;34544;48.836;9.174;2022-12-01T11:49:42;24.90;;;14.65;;
48751;SDS011;34544;48.836;9.174;2022-12-01T11:52:32;24.30;;;14.95;;
48751;SDS011;34544;48.836;9.174;2022-12-01T11:57:31;25.45;;;13.95;;
48751;SDS011;34544;48.836;9.174;2022-12-01T11:59:58;26.77;;;14.13;;
48751;SDS011;34544;48.836;9.174;2022-12-01T12:02:34;26.45;;;15.60;;
48751;SDS011;34544;48.836;9.174;2022-12-01T12:11:21;23.00;;;13.68;;
48751;SDS011;34544;48.836;9.174;2022-12-01T12:14:18;24.83;;;13.85;;
48751;SDS011;34544;48.836;9.174;2022-12-01T12:25:42;19.27;;;12.77;;
48751;SDS011;34544;48.836;9.174;2022-12-01T12:33:42;22.48;;;13.65;;
48751;SDS011;34544;48.836;9.174;2022-12-01T12:36:31;28.80;;;15.38;;
48751;SDS011;34544;48.836;9.174;2022-12-01T12:41:57;25.15;;;15.25;;
48751;SDS011;34544;48.836;9.174;2022-12-01T12:47:24;24.42;;;13.18;;
48751;SDS011;34544;48.836;9.174;2022-12-01T12:52:46;20.35;;;12.82;;
48751;SDS011;34544;48.836;9.174;2022-12-01T12:57:48;27.37;;;14.33;;
48751;SDS011;34544;48.836;9.174;2022-12-01T13:00:19;21.70;;;13.10;;
48751;SDS011;34544;48.836;9.174;2022-12-01T13:02:50;22.42;;;13.60;;
48751;SDS011;34544;48.836;9.174;2022-12-01T13:08:22;21.60;;;13.23;;
48751;SDS011;34544;48.836;9.174;2022-12-01T13:11:34;24.70;;;13.20;;
48751;SDS011;34544;48.836;9.174;2022-12-01T13:16:14;23.52;;;15.05;;
48751;SDS011;34544;48.836;9.174;2022-12-01T13:18:48;23.42;;;13.80;;
48751;SDS011;34544;48.836;9.174;2022-12-01T13:21:19;22.27;;;13.38;;
48751;SDS011;34544;48.836;9.174;2022-12-01T13:23:46;24.25;;;13.38;;
48751;SDS011;34544;48.836;9.174;2022-12-01T13:26:13;22.13;;;13.75;;
48751;SDS011;34544;48.836;9.174;2022-12-01T13:28:49;22.55;;;12.95;;
48751;SDS011;34544;48.836;9.174;2022-12-01T13:31:17;25.70;;;13.80;;
48751;SDS011;34544;48.836;9.174;2022-12-01T13:36:23;23.38;;;14.45;;
48751;SDS011;34544;48.836;9.174;2022-12-01T13:39:36;21.70;;;12.80;;
48751;SDS011;34544;48.836;9.174;2022-12-01T13:41:58;23.65;;;13.82;;
48751;SDS011;34544;48.836;9.174;2022-12-01T13:44:30;22.67;;;12.95;;
48751;SDS011;34544;48.836;9.174;2022-12-01T13:49:41;21.73;;;13.90;;
48751;SDS011;34544;48.836;9.174;2022-12-01T13:57:32;22.35;;;13.43;;
48751;SDS011;34544;48.836;9.174;2022-12-01T14:02:27;27.63;;;14.10;;
48751;SDS011;34544;48.836;9.174;2022-12-01T14:05:10;24.45;;;13.93;;
48751;SDS011;34544;48.836;9.174;2022-12-01T14:07:46;37.50;;;15.63;;
48751;SDS011;34544;48.836;9.174;2022-12-01T14:10:22;25.85;;;14.55;;
48751;SDS011;34544;48.836;9.174;2022-12-01T14:12:59;24.83;;;13.25;;
48751;SDS011;34544;48.836;9.174;2022-12-01T14:15:32;20.95;;;13.40;;
48751;SDS011;34544;48.836;9.174;2022-12-01T14:20:47;25.02;;;14.65;;
48751;SDS011;34544;48.836;9.174;2022-12-01T14:25:58;23.73;;;11.73;;
48751;SDS011;34544;48.836;9.174;2022-12-01T14:36:51;24.08;;;13.45;;
48751;SDS011;34544;48.836;9.174;2022-12-01T14:40:29;20.58;;;13.25;;
48751;SDS011;34544;48.836;9.174;2022-12-01T14:42:33;20.98;;;13.40;;
48751;SDS011;34544;48.836;9.174;2022-12-01T14:45:24;22.95;;;13.07;;
48751;SDS011;34544;48.836;9.174;2022-12-01T14:50:31;28.85;;;13.35;;
48751;SDS011;34544;48.836;9.174;2022-12-01T14:53:10;27.13;;;14.60;;
48751;SDS011;34544;48.836;9.174;2022-12-01T14:56:10;25.30;;;13.68;;
48751;SDS011;34544;48.836;9.174;2022-12-01T14:58:49;22.50;;;14.38;;
48751;SDS011;34544;48.836;9.174;2022-12-01T15:01:16;23.30;;;14.43;;
48751;SDS011;34544;48.836;9.174;2022-12-01T15:03:49;26.90;;;13.75;;
48751;SDS011;34544;48.836;9.174;2022-12-01T15:06:18;22.23;;;13.25;;
48751;SDS011;34544;48.836;9.174;2022-12-01T15:09:05;20.88;;;12.55;;
48751;SDS011;34544;48.836;9.174;2022-12-01T15:11:32;26.65;;;14.63;;
48751;SDS011;34544;48.836;9.174;2022-12-01T15:13:59;23.00;;;13.95;;
48751;SDS011;34544;48.836;9.174;2022-12-01T15:16:29;22.83;;;13.82;;
48751;SDS011;34544;48.836;9.174;2022-12-01T15:18:56;25.58;;;13.98;;
48751;SDS011;34544;48.836;9.174;2022-12-01T15:21:23;24.63;;;14.40;;
48751;SDS011;34544;48.836;9.174;2022-12-01T15:23:51;24.70;;;14.52;;
48751;SDS011;34544;48.836;9.174;2022-12-01T15:26:23;22.97;;;12.80;;
48751;SDS011;34544;48.836;9.174;2022-12-01T15:29:03;22.77;;;13.88;;
48751;SDS011;34544;48.836;9.174;2022-12-01T15:31:44;23.42;;;14.00;;
48751;SDS011;34544;48.836;9.174;2022-12-01T15:34:16;27.45;;;14.98;;
48751;SDS011;34544;48.836;9.174;2022-12-01T15:37:04;26.25;;;15.27;;
48751;SDS011;34544;48.836;9.174;2022-12-01T15:40:20;22.92;;;13.82;;
48751;SDS011;34544;48.836;9.174;2022-12-01T15:42:26;26.27;;;12.88;;
48751;SDS011;34544;48.836;9.174;2022-12-01T15:47:45;26.83;;;14.70;;
48751;SDS011;34544;48.836;9.174;2022-12-01T15:53:06;24.02;;;14.57;;
48751;SDS011;34544;48.836;9.174;2022-12-01T15:55:52;24.80;;;14.45;;
48751;SDS011;34544;48.836;9.174;2022-12-01T15:58:29;23.25;;;13.77;;
48751;SDS011;34544;48.836;9.174;2022-12-01T16:03:22;23.20;;;13.98;;
48751;SDS011;34544;48.836;9.174;2022-12-01T16:05:48;29.33;;;14.93;;
48751;SDS011;34544;48.836;9.174;2022-12-01T16:21:40;28.70;;;15.60;;
48751;SDS011;34544;48.836;9.174;2022-12-01T16:24:26;25.20;;;14.07;;
48751;SDS011;34544;48.836;9.174;2022-12-01T16:29:26;31.63;;;18.20;;
48751;SDS011;34544;48.836;9.174;2022-12-01T16:31:54;28.70;;;15.13;;
48751;SDS011;34544;48.836;9.174;2022-12-01T16:34:25;27.08;;;15.95;;
48751;SDS011;34544;48.836;9.174;2022-12-01T16:36:51;27.17;;;15.48;;
48751;SDS011;34544;48.836;9.174;2022-12-01T16:39:17;27.38;;;16.50;;
48751;SDS011;34544;48.836;9.174;2022-12-01T16:41:42;26.00;;;15.93;;
48751;SDS011;34544;48.836;9.174;2022-12-01T16:44:15;27.33;;;16.00;;
48751;SDS011;34544;48.836;9.174;2022-12-01T16:46:41;27.70;;;16.10;;
48751;SDS011;34544;48.836;9.174;2022-12-01T16:49:07;27.20;;;16.92;;
48751;SDS011;34544;48.836;9.174;2022-12-01T16:51:33;28.88;;;15.27;;
48751;SDS011;34544;48.836;9.174;2022-12-01T16:54:00;25.58;;;16.13;;
48751;SDS011;34544;48.836;9.174;2022-12-01T16:56:27;28.05;;;17.15;;
48751;SDS011;34544;48.836;9.174;2022-12-01T16:58:53;31.25;;;17.00;;
48751;SDS011;34544;48.836;9.174;2022-12-01T17:01:19;25.90;;;16.05;;
48751;SDS011;34544;48.836;9.174;2022-12-01T17:03:44;27.42;;;15.20;;
48751;SDS011;34544;48.836;9.174;2022-12-01T17:06:12;29.25;;;16.27;;